Time;durP1;ratioP1;P1;durP2;ratioP2;P2;SDS_P1;SDS_P2;PMS_P1;PMS_P2;Temp;Humidity;BMP_temperature;BMP_pressure;BME280_temperature;BME280_humidity;BME280_pressure;Samples;Min_cycle;Max_cycle;Signal;HPM_P1;HPM_P2
2022/12/18 00:02:15;;;;;;;69.10;33.93;;;-3.40;99.90;;;;;;5073969;28;20287;-76
2022/12/18 00:04:41;;;;;;;67.73;33.33;;;-3.40;99.90;;;;;;5074029;28;20182;-75
2022/12/18 00:07:06;;;;;;;69.47;33.90;;;-3.30;99.90;;;;;;5074066;28;20172;-75
2022/12/18 00:09:32;;;;;;;68.17;33.63;;;-3.40;99.90;;;;;;5074104;28;20519;-75
2022/12/18 00:11:58;;;;;;;72.10;34.73;;;-3.40;99.90;;;;;;5073666;28;20673;-76
2022/12/18 00:14:23;;;;;;;72.20;34.40;;;-3.40;99.90;;;;;;5073802;28;20182;-77
2022/12/18 00:16:49;;;;;;;73.00;32.37;;;-3.50;99.90;;;;;;5073624;28;20625;-76
2022/12/18 00:19:15;;;;;;;64.40;31.00;;;-3.60;99.90;;;;;;5073772;28;20177;-76
2022/12/18 00:21:42;;;;;;;64.60;29.63;;;-3.70;99.90;;;;;;5074070;28;20186;-75
2022/12/18 00:24:09;;;;;;;63.73;30.07;;;-3.80;99.90;;;;;;5073853;28;20511;-74
2022/12/18 00:26:36;;;;;;;63.50;31.73;;;-3.80;99.90;;;;;;5073754;28;20232;-76
2022/12/18 00:29:06;;;;;;;62.73;31.40;;;-3.80;99.90;;;;;;5073875;28;20196;-75
2022/12/18 00:31:32;;;;;;;65.33;31.67;;;-3.70;99.90;;;;;;5073259;28;20188;-76
2022/12/18 00:33:58;;;;;;;58.90;31.10;;;-3.70;99.90;;;;;;5073582;28;20236;-77
2022/12/18 00:36:26;;;;;;;63.50;30.47;;;-3.70;99.90;;;;;;5073466;28;20208;-75
2022/12/18 00:38:54;;;;;;;65.63;32.13;;;-3.70;99.90;;;;;;5073781;28;20259;-75
2022/12/18 00:44:06;;;;;;;63.50;31.57;;;-3.70;99.90;;;;;;5073807;28;20187;-76
2022/12/18 00:46:32;;;;;;;64.60;32.27;;;-3.70;99.90;;;;;;5072942;28;20275;-74
2022/12/18 00:48:58;;;;;;;63.23;31.73;;;-3.70;99.90;;;;;;5073386;28;20185;-75
2022/12/18 00:51:24;;;;;;;59.77;30.57;;;-3.60;99.90;;;;;;5072035;28;20169;-75
2022/12/18 00:53:50;;;;;;;62.07;29.90;;;-3.70;99.90;;;;;;5073374;28;20173;-75
2022/12/18 00:56:16;;;;;;;59.73;29.37;;;-3.80;99.90;;;;;;5073198;28;20223;-76
2022/12/18 00:58:41;;;;;;;62.10;28.13;;;-3.80;99.90;;;;;;5073412;28;20262;-76
2022/12/18 01:01:07;;;;;;;57.77;28.70;;;-3.90;99.90;;;;;;5073054;28;20212;-76
2022/12/18 01:03:33;;;;;;;61.43;29.47;;;-3.80;99.90;;;;;;5073282;28;20176;-75
2022/12/18 01:05:58;;;;;;;59.80;28.97;;;-3.90;99.90;;;;;;5073258;28;20180;-76
2022/12/18 01:08:24;;;;;;;57.03;29.30;;;-3.90;99.90;;;;;;5073393;28;20173;-77
2022/12/18 01:10:50;;;;;;;57.10;29.53;;;-3.80;99.90;;;;;;5073453;28;20173;-77
2022/12/18 01:13:16;;;;;;;54.70;29.27;;;-3.80;99.90;;;;;;5072906;28;20226;-74
2022/12/18 01:15:51;;;;;;;55.90;28.47;;;-3.80;99.90;;;;;;5072619;28;20263;-74
2022/12/18 01:18:18;;;;;;;63.23;29.93;;;-3.70;99.90;;;;;;5073386;28;20298;-76
2022/12/18 01:20:43;;;;;;;58.13;28.77;;;-3.70;99.90;;;;;;5073390;28;20212;-75
2022/12/18 01:23:09;;;;;;;60.47;29.67;;;-3.70;99.90;;;;;;5073249;28;20173;-75
2022/12/18 01:25:38;;;;;;;62.63;30.53;;;-3.80;99.90;;;;;;5073152;28;20172;-75
2022/12/18 01:28:03;;;;;;;62.00;29.50;;;-3.80;99.90;;;;;;5073002;28;20660;-75
2022/12/18 01:30:29;;;;;;;61.40;30.37;;;-3.90;99.90;;;;;;5072703;28;20220;-76
2022/12/18 01:32:55;;;;;;;60.70;28.60;;;-4.00;99.90;;;;;;5073047;28;20524;-75
2022/12/18 01:35:20;;;;;;;54.87;29.50;;;-4.00;99.90;;;;;;5072887;28;20258;-74
2022/12/18 01:37:46;;;;;;;57.57;28.60;;;-4.00;99.90;;;;;;5073120;28;20173;-75
2022/12/18 01:40:12;;;;;;;55.43;28.33;;;-4.00;99.90;;;;;;5073187;28;20185;-75
2022/12/18 01:42:37;;;;;;;54.97;27.60;;;-3.90;99.90;;;;;;5072802;28;20503;-74
2022/12/18 01:45:12;;;;;;;57.63;29.13;;;-3.80;99.90;;;;;;5072578;28;20170;-75
2022/12/18 01:47:57;;;;;;;58.87;28.80;;;-3.80;99.90;;;;;;5073017;28;20223;-75
2022/12/18 01:50:33;;;;;;;53.07;27.77;;;-3.80;99.90;;;;;;5072946;28;20640;-75
2022/12/18 01:53:07;;;;;;;53.73;27.80;;;-3.80;99.90;;;;;;5072823;28;20178;-75
2022/12/18 01:55:47;;;;;;;61.73;28.67;;;-3.90;99.90;;;;;;5072804;28;20204;-74
2022/12/18 01:58:13;;;;;;;51.87;27.23;;;-3.90;99.90;;;;;;5072592;28;20175;-74
2022/12/18 02:00:38;;;;;;;54.97;28.13;;;-3.90;99.90;;;;;;5073348;28;20168;-75
2022/12/18 02:03:04;;;;;;;56.47;27.10;;;-3.90;99.90;;;;;;5076571;28;20169;-76
2022/12/18 02:05:36;;;;;;;49.03;24.77;;;-3.90;99.90;;;;;;5076397;28;20177;-75
2022/12/18 02:08:26;;;;;;;48.00;24.17;;;-3.90;99.90;;;;;;5076494;28;20176;-75
2022/12/18 02:11:10;;;;;;;54.80;24.23;;;-4.00;99.90;;;;;;5014773;28;20266;-77
2022/12/18 02:13:50;;;;;;;50.63;24.87;;;-4.10;99.90;;;;;;5013999;28;20215;-75
2022/12/18 02:16:37;;;;;;;52.17;25.57;;;-4.10;99.90;;;;;;5014569;28;20226;-75
2022/12/18 02:19:20;;;;;;;48.73;25.70;;;-4.20;99.90;;;;;;5014414;28;20175;-73
2022/12/18 02:21:57;;;;;;;48.00;24.43;;;-4.10;99.90;;;;;;5014559;28;20182;-75
2022/12/18 02:24:40;;;;;;;51.10;26.07;;;-4.10;99.90;;;;;;5014221;28;20166;-74
2022/12/18 02:27:09;;;;;;;54.07;25.60;;;-4.10;99.90;;;;;;5013959;28;20201;-74
2022/12/18 02:29:48;;;;;;;50.37;24.77;;;-4.10;99.90;;;;;;5014066;28;20187;-75
2022/12/18 02:32:17;;;;;;;49.90;25.43;;;-4.00;99.90;;;;;;5014296;28;20201;-74
2022/12/18 02:34:44;;;;;;;49.07;24.80;;;-4.10;99.90;;;;;;5013981;28;20221;-75
2022/12/18 02:37:14;;;;;;;50.27;25.73;;;-4.10;99.90;;;;;;5014079;28;20575;-75
2022/12/18 02:39:42;;;;;;;49.40;25.07;;;-4.10;99.90;;;;;;5014206;28;20170;-75
2022/12/18 02:42:08;;;;;;;46.23;24.23;;;-4.10;99.90;;;;;;5013781;28;20175;-75
2022/12/18 02:44:41;;;;;;;47.77;24.70;;;-4.10;99.90;;;;;;5014025;28;20626;-76
2022/12/18 02:47:11;;;;;;;45.93;24.47;;;-4.10;99.90;;;;;;5025338;28;20214;-74
2022/12/18 02:49:55;;;;;;;53.23;25.13;;;-4.00;99.90;;;;;;5076018;28;20212;-74
2022/12/18 02:52:23;;;;;;;48.70;24.70;;;-4.00;99.90;;;;;;5075853;28;20173;-74
2022/12/18 02:55:07;;;;;;;50.67;24.97;;;-4.00;99.90;;;;;;5075523;28;20200;-74
2022/12/18 02:58:13;;;;;;;46.43;24.07;;;-4.00;99.90;;;;;;5075196;28;20171;-75
2022/12/18 03:00:58;;;;;;;42.27;22.67;;;-4.20;99.90;;;;;;5075557;28;20176;-75
2022/12/18 03:03:54;;;;;;;45.03;23.37;;;-4.10;99.90;;;;;;5075529;28;20313;-75
2022/12/18 03:06:35;;;;;;;42.87;22.73;;;-4.10;99.90;;;;;;5075459;28;20218;-73
2022/12/18 03:09:07;;;;;;;40.33;20.70;;;-4.00;99.90;;;;;;5075397;28;20639;-74
2022/12/18 03:14:24;;;;;;;47.03;23.90;;;-3.90;99.90;;;;;;5075008;28;20217;-75
2022/12/18 03:16:53;;;;;;;45.90;23.20;;;-4.00;99.90;;;;;;5075145;28;20184;-74
2022/12/18 03:19:25;;;;;;;44.23;22.87;;;-4.00;99.90;;;;;;5075299;28;20232;-75
2022/12/18 03:21:55;;;;;;;44.97;23.60;;;-4.00;99.90;;;;;;5075044;28;20253;-74
2022/12/18 03:24:22;;;;;;;48.57;23.57;;;-4.10;99.90;;;;;;5074529;28;20222;-74
2022/12/18 03:26:53;;;;;;;41.60;22.63;;;-4.10;99.90;;;;;;5074849;28;20704;-74
2022/12/18 03:29:25;;;;;;;42.23;22.17;;;-4.10;99.90;;;;;;5075085;28;20218;-75
2022/12/18 03:31:58;;;;;;;46.87;23.27;;;-4.10;99.90;;;;;;5075018;28;20274;-75
2022/12/18 03:34:30;;;;;;;43.53;22.83;;;-4.10;99.90;;;;;;5074794;28;20763;-75
2022/12/18 03:36:57;;;;;;;44.23;22.73;;;-4.10;99.90;;;;;;5074728;28;20203;-74
2022/12/18 03:39:24;;;;;;;44.57;23.43;;;-4.20;99.90;;;;;;5074430;28;20261;-74
2022/12/18 03:41:52;;;;;;;42.83;22.20;;;-4.30;99.90;;;;;;5074866;28;20188;-75
2022/12/18 03:44:45;;;;;;;40.10;20.83;;;-4.40;99.90;;;;;;5074633;28;20640;-75
2022/12/18 03:47:29;;;;;;;39.80;20.50;;;-4.40;99.90;;;;;;5074495;28;20635;-75
2022/12/18 03:50:19;;;;;;;39.30;19.83;;;-4.40;99.90;;;;;;5074554;28;20181;-76
2022/12/18 03:52:54;;;;;;;38.57;20.10;;;-4.60;99.90;;;;;;5074828;28;20231;-75
2022/12/18 03:55:22;;;;;;;38.77;19.13;;;-4.60;99.90;;;;;;5073933;28;20240;-74
2022/12/18 03:57:49;;;;;;;38.43;20.40;;;-4.60;99.90;;;;;;5074222;28;20172;-74
2022/12/18 04:00:17;;;;;;;39.80;20.33;;;-4.60;99.90;;;;;;5074455;28;20248;-75
2022/12/18 04:02:49;;;;;;;38.03;19.37;;;-4.50;99.90;;;;;;5074306;28;20616;-74
2022/12/18 04:05:16;;;;;;;37.50;20.93;;;-4.60;99.90;;;;;;5074216;28;20180;-74
2022/12/18 04:07:42;;;;;;;42.67;20.20;;;-4.60;99.90;;;;;;5074407;28;20172;-76
2022/12/18 04:10:10;;;;;;;37.30;20.53;;;-4.50;99.90;;;;;;5074149;28;20164;-75
2022/12/18 04:12:37;;;;;;;39.83;19.40;;;-4.60;99.90;;;;;;5073449;28;20216;-76
2022/12/18 04:15:03;;;;;;;40.97;20.50;;;-4.60;99.90;;;;;;5074132;28;20624;-75
2022/12/18 04:17:29;;;;;;;36.30;19.73;;;-4.60;99.90;;;;;;5074186;28;20670;-75
2022/12/18 04:19:54;;;;;;;36.23;19.57;;;-4.60;99.90;;;;;;5074046;28;20173;-76
2022/12/18 04:22:20;;;;;;;41.77;21.07;;;-4.60;99.90;;;;;;5073708;28;20548;-76
2022/12/18 04:24:45;;;;;;;39.43;20.00;;;-4.70;99.90;;;;;;5073441;28;20175;-75
2022/12/18 04:27:11;;;;;;;34.50;18.47;;;-4.70;99.90;;;;;;5073672;28;20686;-74
2022/12/18 04:29:37;;;;;;;38.27;19.90;;;-4.70;99.90;;;;;;5073621;28;20666;-75
2022/12/18 04:32:02;;;;;;;40.03;19.50;;;-4.70;99.90;;;;;;5073641;28;20169;-74
2022/12/18 04:34:28;;;;;;;33.57;18.87;;;-4.60;99.90;;;;;;5073621;28;20259;-75
2022/12/18 04:36:53;;;;;;;37.57;19.47;;;-4.70;99.90;;;;;;5072030;28;20267;-74
2022/12/18 04:39:19;;;;;;;36.40;18.50;;;-4.70;99.90;;;;;;5073792;28;20169;-75
2022/12/18 04:41:45;;;;;;;33.63;18.20;;;-4.70;99.90;;;;;;5073603;28;20181;-75
2022/12/18 04:44:10;;;;;;;39.50;19.33;;;-4.70;99.90;;;;;;5073603;28;20168;-75
2022/12/18 04:46:36;;;;;;;35.00;18.63;;;-4.60;99.90;;;;;;5073366;28;20196;-74
2022/12/18 04:49:01;;;;;;;36.80;19.43;;;-4.60;99.90;;;;;;5073734;28;20185;-75
2022/12/18 04:51:27;;;;;;;35.83;18.53;;;-4.60;99.90;;;;;;5073244;28;20169;-75
2022/12/18 04:53:53;;;;;;;35.80;18.20;;;-4.60;99.90;;;;;;5073323;28;20189;-74
2022/12/18 04:56:19;;;;;;;37.20;19.57;;;-4.60;99.90;;;;;;5073264;28;20376;-73
2022/12/18 04:58:44;;;;;;;36.17;19.07;;;-4.60;99.90;;;;;;5073717;28;20168;-74
2022/12/18 05:01:11;;;;;;;32.90;17.73;;;-4.50;99.90;;;;;;5073464;28;20219;-74
2022/12/18 05:03:37;;;;;;;34.77;18.13;;;-4.50;99.90;;;;;;5073228;28;20241;-75
2022/12/18 05:06:04;;;;;;;36.07;19.43;;;-4.50;99.90;;;;;;5072832;28;20203;-74
2022/12/18 05:08:30;;;;;;;32.00;18.10;;;-4.50;99.90;;;;;;5073552;28;20514;-75
2022/12/18 05:11:15;;;;;;;34.37;17.80;;;-4.50;99.90;;;;;;5073149;28;20172;-74
2022/12/18 05:13:42;;;;;;;34.73;18.50;;;-4.40;99.90;;;;;;5072895;28;20264;-75
2022/12/18 05:16:08;;;;;;;40.47;18.90;;;-4.40;99.90;;;;;;5072999;28;20208;-74
2022/12/18 05:18:34;;;;;;;38.27;18.57;;;-4.30;99.90;;;;;;5073085;28;20180;-75
2022/12/18 05:21:00;;;;;;;33.43;17.80;;;-4.30;99.90;;;;;;5072887;28;20246;-75
2022/12/18 05:23:26;;;;;;;35.13;18.57;;;-4.40;99.90;;;;;;5073096;28;20200;-75
2022/12/18 05:25:52;;;;;;;33.90;17.50;;;-4.40;99.90;;;;;;5072983;28;20192;-74
2022/12/18 05:28:18;;;;;;;31.10;16.97;;;-4.40;99.90;;;;;;5072986;28;20181;-75
2022/12/18 05:30:49;;;;;;;33.70;18.27;;;-4.40;99.90;;;;;;5072912;28;20188;-75
2022/12/18 05:33:15;;;;;;;31.20;17.03;;;-4.40;99.90;;;;;;5073315;28;20318;-75
2022/12/18 05:35:40;;;;;;;31.03;16.47;;;-4.40;99.90;;;;;;5073446;28;20290;-73
2022/12/18 05:38:06;;;;;;;33.00;17.37;;;-4.40;99.90;;;;;;5077095;28;20164;-74
2022/12/18 05:40:31;;;;;;;34.40;17.43;;;-4.40;99.90;;;;;;5076934;28;20512;-75
2022/12/18 05:42:57;;;;;;;35.60;16.97;;;-4.40;99.90;;;;;;5077101;28;20169;-75
2022/12/18 05:45:23;;;;;;;30.03;16.07;;;-4.40;99.90;;;;;;5076501;28;20222;-74
2022/12/18 05:47:48;;;;;;;34.43;17.47;;;-4.40;99.90;;;;;;5076692;28;20215;-75
2022/12/18 05:50:14;;;;;;;32.50;16.77;;;-4.40;99.90;;;;;;5076516;28;20189;-75
2022/12/18 05:52:39;;;;;;;34.70;17.33;;;-4.40;99.90;;;;;;5076652;28;20251;-74
2022/12/18 05:55:05;;;;;;;28.97;16.97;;;-4.50;99.90;;;;;;5076519;28;20233;-74
2022/12/18 05:57:31;;;;;;;32.53;17.23;;;-4.50;99.90;;;;;;5076765;28;20570;-74
2022/12/18 05:59:56;;;;;;;29.67;16.47;;;-4.50;99.90;;;;;;5076500;28;20169;-75
2022/12/18 06:02:22;;;;;;;34.63;16.80;;;-4.50;99.90;;;;;;5076443;28;20619;-74
2022/12/18 06:04:47;;;;;;;29.20;16.33;;;-4.50;99.90;;;;;;5076272;28;20184;-74
2022/12/18 06:07:13;;;;;;;30.10;16.23;;;-4.40;99.90;;;;;;5076415;28;20210;-75
2022/12/18 06:09:39;;;;;;;30.70;16.20;;;-4.50;99.90;;;;;;5076535;28;20178;-75
2022/12/18 06:12:05;;;;;;;27.57;15.30;;;-4.60;99.90;;;;;;5076271;28;20169;-75
2022/12/18 06:14:30;;;;;;;31.37;16.73;;;-4.60;99.90;;;;;;5076203;28;20185;-75
2022/12/18 06:16:56;;;;;;;31.07;16.13;;;-4.70;99.90;;;;;;5076252;28;20514;-74
2022/12/18 06:19:21;;;;;;;29.83;16.40;;;-4.60;99.90;;;;;;5076011;28;20249;-74
2022/12/18 06:21:47;;;;;;;27.40;15.43;;;-4.60;99.90;;;;;;5075829;28;20177;-75
2022/12/18 06:24:13;;;;;;;33.57;16.70;;;-4.60;99.90;;;;;;5076235;28;20654;-75
2022/12/18 06:26:38;;;;;;;33.83;15.50;;;-4.60;99.90;;;;;;5075999;28;20233;-75
2022/12/18 06:29:04;;;;;;;29.00;15.70;;;-4.60;99.90;;;;;;5075861;28;20173;-75
2022/12/18 06:31:30;;;;;;;37.77;17.57;;;-4.60;99.90;;;;;;5075939;28;20200;-74
2022/12/18 06:33:56;;;;;;;27.53;16.17;;;-4.50;99.90;;;;;;5075586;28;20216;-74
2022/12/18 06:36:22;;;;;;;29.87;16.47;;;-4.40;99.90;;;;;;5075797;28;20701;-74
2022/12/18 06:38:47;;;;;;;30.57;15.93;;;-4.60;99.90;;;;;;5075941;28;20191;-74
2022/12/18 06:41:18;;;;;;;28.27;16.50;;;-4.50;99.90;;;;;;5075852;28;20632;-74
2022/12/18 06:43:44;;;;;;;29.10;15.73;;;-4.60;99.90;;;;;;5075665;28;20172;-75
2022/12/18 06:46:10;;;;;;;29.93;15.63;;;-4.60;99.90;;;;;;5075473;28;20248;-74
2022/12/18 06:48:36;;;;;;;32.00;16.47;;;-4.60;99.90;;;;;;5075227;28;20173;-73
2022/12/18 06:51:02;;;;;;;28.90;15.90;;;-4.60;99.90;;;;;;5075340;28;20306;-76
2022/12/18 06:53:29;;;;;;;30.53;16.40;;;-4.60;99.90;;;;;;5075013;28;20176;-75
2022/12/18 06:56:06;;;;;;;29.53;15.83;;;-4.60;99.90;;;;;;5074639;28;20287;-76
2022/12/18 06:58:32;;;;;;;31.53;16.10;;;-4.60;99.90;;;;;;5074888;28;20161;-74
2022/12/18 07:01:06;;;;;;;31.57;15.60;;;-4.60;99.90;;;;;;5075297;28;20177;-76
2022/12/18 07:03:32;;;;;;;30.50;15.73;;;-4.50;99.90;;;;;;5075287;28;20173;-74
2022/12/18 07:05:57;;;;;;;33.40;16.30;;;-4.40;99.90;;;;;;5075307;28;20649;-75
2022/12/18 07:08:23;;;;;;;32.97;17.00;;;-4.30;99.90;;;;;;5075468;28;20162;-74
2022/12/18 07:10:49;;;;;;;30.70;15.87;;;-4.30;99.90;;;;;;5075321;28;20183;-75
2022/12/18 07:13:15;;;;;;;26.70;16.13;;;-4.40;99.90;;;;;;5074669;28;20669;-76
2022/12/18 07:15:42;;;;;;;28.57;15.47;;;-4.30;99.90;;;;;;5074784;28;20342;-75
2022/12/18 07:18:08;;;;;;;28.07;14.47;;;-4.30;99.90;;;;;;5074875;28;20226;-74
2022/12/18 07:20:34;;;;;;;31.40;15.50;;;-4.20;99.90;;;;;;5075137;28;20177;-76
2022/12/18 07:23:02;;;;;;;27.53;15.63;;;-4.20;99.90;;;;;;5075044;28;20183;-75
2022/12/18 07:25:28;;;;;;;26.43;15.23;;;-4.20;99.90;;;;;;5074958;28;20647;-74
2022/12/18 07:27:54;;;;;;;26.50;16.53;;;-4.20;99.90;;;;;;5074951;28;20173;-76
2022/12/18 07:30:20;;;;;;;26.27;15.70;;;-4.20;99.90;;;;;;5074751;28;20288;-75
2022/12/18 07:32:45;;;;;;;26.93;14.73;;;-4.20;99.90;;;;;;5074311;28;20211;-77
2022/12/18 07:35:11;;;;;;;29.17;14.57;;;-4.20;99.90;;;;;;5074738;28;20188;-75
2022/12/18 07:37:36;;;;;;;27.70;15.40;;;-4.20;99.90;;;;;;5074713;28;20251;-76
2022/12/18 07:40:02;;;;;;;24.20;14.57;;;-4.10;99.90;;;;;;5074652;28;20165;-75
2022/12/18 07:42:31;;;;;;;25.53;14.80;;;-4.10;99.90;;;;;;5074618;28;20173;-74
2022/12/18 07:44:57;;;;;;;22.53;13.60;;;-4.00;99.90;;;;;;5074288;28;20162;-74
2022/12/18 07:47:23;;;;;;;26.33;13.33;;;-4.10;99.90;;;;;;5074150;28;20177;-74
2022/12/18 07:49:48;;;;;;;26.07;14.50;;;-4.10;99.90;;;;;;5074361;28;20168;-75
2022/12/18 07:52:14;;;;;;;27.43;13.80;;;-4.10;99.90;;;;;;5074710;28;20521;-73
2022/12/18 07:54:42;;;;;;;26.20;13.60;;;-4.20;99.90;;;;;;5074283;28;20169;-75
2022/12/18 07:57:08;;;;;;;24.43;14.30;;;-4.10;99.90;;;;;;5074309;28;20169;-74
2022/12/18 07:59:34;;;;;;;21.77;13.73;;;-4.00;99.90;;;;;;5073273;28;20226;-76
2022/12/18 08:02:00;;;;;;;23.97;14.53;;;-4.00;99.90;;;;;;5073676;28;20458;-75
2022/12/18 08:04:25;;;;;;;22.00;13.47;;;-4.00;99.90;;;;;;5074100;28;20257;-75
2022/12/18 08:06:51;;;;;;;23.20;13.37;;;-3.90;99.90;;;;;;5074218;28;20172;-74
2022/12/18 08:09:17;;;;;;;19.43;11.93;;;-3.70;99.90;;;;;;5074199;28;20188;-73
2022/12/18 08:11:43;;;;;;;15.50;10.03;;;-3.60;99.90;;;;;;5072569;28;20178;-75
2022/12/18 08:14:09;;;;;;;20.10;11.53;;;-3.30;99.90;;;;;;5073383;28;20239;-74
2022/12/18 08:16:35;;;;;;;18.70;10.50;;;-3.20;99.90;;;;;;5073085;28;20206;-74
2022/12/18 08:19:01;;;;;;;13.73;9.20;;;-2.80;99.90;;;;;;5073604;28;20178;-74
2022/12/18 08:21:29;;;;;;;14.67;10.13;;;-2.60;99.90;;;;;;5073913;28;20643;-74
2022/12/18 08:23:57;;;;;;;18.37;9.80;;;-2.30;99.90;;;;;;5073527;28;20170;-75
2022/12/18 08:26:25;;;;;;;13.93;9.23;;;-2.10;99.90;;;;;;5073408;28;20173;-74
2022/12/18 08:28:51;;;;;;;13.70;8.70;;;-1.80;99.90;;;;;;5073340;28;20179;-74
2022/12/18 08:31:18;;;;;;;14.83;8.23;;;-1.60;99.90;;;;;;5073152;28;20337;-74
2022/12/18 08:33:43;;;;;;;12.03;8.23;;;-1.40;99.90;;;;;;5073395;28;20200;-73
2022/12/18 08:36:10;;;;;;;12.30;8.40;;;-1.00;99.90;;;;;;5073122;28;20293;-72
2022/12/18 08:38:35;;;;;;;12.90;8.50;;;-0.50;99.90;;;;;;5072750;28;20200;-71
2022/12/18 08:41:06;;;;;;;13.67;9.00;;;0.00;99.90;;;;;;5073335;28;20240;-72
2022/12/18 08:46:21;;;;;;;11.33;7.90;;;0.60;99.90;;;;;;5073285;28;20196;-72
2022/12/18 08:48:47;;;;;;;10.40;7.80;;;0.80;99.90;;;;;;5073204;28;20322;-72
2022/12/18 08:51:15;;;;;;;12.77;8.77;;;0.80;99.90;;;;;;5073197;28;20165;-72
2022/12/18 08:53:41;;;;;;;13.27;8.47;;;0.80;99.90;;;;;;5073194;28;20171;-72
2022/12/18 08:56:07;;;;;;;14.40;8.90;;;0.80;99.90;;;;;;5073072;28;20262;-72
2022/12/18 08:58:32;;;;;;;9.93;7.90;;;0.60;99.90;;;;;;5072474;28;20189;-72
2022/12/18 09:01:06;;;;;;;12.27;8.37;;;0.50;99.90;;;;;;5072437;28;20260;-72
2022/12/18 09:03:32;;;;;;;12.67;8.73;;;0.80;99.90;;;;;;5072557;28;20175;-71
2022/12/18 09:05:59;;;;;;;11.23;7.73;;;1.20;99.90;;;;;;5072788;28;20183;-71
2022/12/18 09:08:25;;;;;;;12.77;8.13;;;1.20;99.90;;;;;;5072999;28;20176;-71
2022/12/18 09:10:51;;;;;;;11.43;8.10;;;1.20;99.90;;;;;;5072821;28;20699;-72
2022/12/18 09:13:17;;;;;;;9.80;7.73;;;1.20;99.90;;;;;;5072025;28;20271;-71
2022/12/18 09:15:47;;;;;;;13.13;9.03;;;1.20;99.90;;;;;;5072193;28;20233;-72
2022/12/18 09:18:14;;;;;;;12.37;8.50;;;1.00;99.90;;;;;;5072969;28;20255;-72
2022/12/18 09:20:39;;;;;;;12.87;8.40;;;1.00;99.90;;;;;;5072518;28;20192;-71
2022/12/18 09:23:06;;;;;;;14.07;8.70;;;0.90;99.90;;;;;;5072739;28;20176;-72
2022/12/18 09:25:33;;;;;;;13.13;9.13;;;0.80;99.90;;;;;;5072644;28;20169;-71
2022/12/18 09:28:18;;;;;;;14.67;9.13;;;0.80;99.90;;;;;;5072527;28;20272;-72
2022/12/18 09:30:49;;;;;;;15.07;9.03;;;0.80;99.90;;;;;;5072901;28;20274;-72
2022/12/18 09:33:15;;;;;;;13.67;9.50;;;0.80;99.90;;;;;;5072820;28;20179;-72
2022/12/18 09:35:43;;;;;;;14.77;9.60;;;0.90;99.90;;;;;;5072306;28;20532;-72
2022/12/18 09:38:14;;;;;;;16.67;10.07;;;0.90;99.90;;;;;;5072699;28;20187;-72
2022/12/18 09:40:49;;;;;;;16.20;9.70;;;0.80;99.90;;;;;;5072595;28;20213;-72
2022/12/18 09:43:19;;;;;;;17.93;9.63;;;1.00;99.90;;;;;;5072635;28;20176;-73
2022/12/18 09:45:53;;;;;;;14.53;9.70;;;1.00;99.90;;;;;;5072542;28;20175;-72
2022/12/18 09:48:41;;;;;;;14.07;9.30;;;1.10;99.90;;;;;;5072494;28;20175;-72
2022/12/18 09:51:33;;;;;;;15.93;9.40;;;1.20;99.90;;;;;;5072404;28;20643;-71
2022/12/18 09:54:04;;;;;;;15.33;9.40;;;1.10;99.90;;;;;;5036843;28;20180;-73
2022/12/18 09:56:36;;;;;;;15.83;9.73;;;1.10;99.90;;;;;;5071940;28;20710;-71
2022/12/18 09:59:04;;;;;;;15.73;10.00;;;1.00;99.90;;;;;;5072427;28;20443;-74
2022/12/18 10:01:32;;;;;;;15.17;10.13;;;1.00;99.90;;;;;;5072112;28;20692;-73
2022/12/18 10:03:58;;;;;;;15.30;9.90;;;0.90;99.90;;;;;;5072037;28;20254;-72
2022/12/18 10:07:06;;;;;;;15.60;10.50;;;0.80;99.90;;;;;;5072204;28;20177;-72
2022/12/18 10:09:59;;;;;;;18.70;10.03;;;0.70;99.90;;;;;;5051140;28;20187;-73
2022/12/18 10:12:32;;;;;;;15.70;10.37;;;0.70;99.90;;;;;;5071974;28;20247;-72
2022/12/18 10:15:23;;;;;;;19.87;12.80;;;0.60;99.90;;;;;;5071803;28;20207;-72
2022/12/18 10:18:15;;;;;;;17.20;11.17;;;0.70;99.90;;;;;;5072095;28;20234;-72
2022/12/18 10:20:47;;;;;;;31.80;17.10;;;0.70;99.90;;;;;;5072088;28;20177;-70
2022/12/18 10:23:22;;;;;;;17.90;11.40;;;0.80;99.90;;;;;;5075103;28;20222;-72
2022/12/18 10:26:02;;;;;;;16.20;10.80;;;0.80;99.90;;;;;;5075324;28;20229;-73
2022/12/18 10:28:30;;;;;;;16.60;11.10;;;0.90;99.90;;;;;;5075404;28;20172;-72
2022/12/18 10:30:56;;;;;;;18.53;11.73;;;0.90;99.90;;;;;;5075697;28;20200;-72
2022/12/18 10:33:27;;;;;;;18.33;11.70;;;0.90;99.90;;;;;;5075251;28;20177;-73
2022/12/18 10:35:53;;;;;;;18.80;11.73;;;0.90;99.90;;;;;;5075434;28;20234;-73
2022/12/18 10:38:20;;;;;;;17.27;11.60;;;0.90;99.90;;;;;;5074988;28;20252;-73
2022/12/18 10:40:59;;;;;;;21.03;13.63;;;1.00;99.90;;;;;;5075128;28;20657;-72
2022/12/18 10:43:31;;;;;;;19.87;12.33;;;1.00;99.90;;;;;;5075548;28;20247;-73
2022/12/18 10:46:08;;;;;;;17.07;12.10;;;1.00;99.90;;;;;;5075493;28;20176;-72
2022/12/18 10:48:38;;;;;;;16.77;11.97;;;1.00;99.90;;;;;;5074128;28;20194;-73
2022/12/18 10:51:06;;;;;;;15.47;10.77;;;1.10;99.90;;;;;;5075255;28;20167;-72
2022/12/18 10:53:34;;;;;;;19.00;11.57;;;1.00;99.90;;;;;;5075125;28;20190;-73
2022/12/18 10:56:01;;;;;;;17.20;12.27;;;1.00;99.90;;;;;;5074741;28;20200;-72
2022/12/18 10:58:32;;;;;;;17.37;12.10;;;1.10;99.90;;;;;;5075105;28;20321;-73
2022/12/18 11:01:19;;;;;;;19.60;13.30;;;1.20;99.90;;;;;;5074483;28;20182;-72
2022/12/18 11:03:54;;;;;;;20.77;12.50;;;1.20;99.90;;;;;;5075286;28;20270;-72
2022/12/18 11:06:24;;;;;;;19.33;12.53;;;1.30;99.90;;;;;;5074278;28;20228;-72
2022/12/18 11:09:04;;;;;;;20.67;12.33;;;1.40;99.90;;;;;;5074739;28;20188;-71
2022/12/18 11:11:32;;;;;;;18.90;12.20;;;1.50;99.90;;;;;;5074603;28;20259;-72
2022/12/18 11:14:05;;;;;;;16.73;11.63;;;1.60;99.90;;;;;;5074906;28;20223;-72
2022/12/18 11:16:36;;;;;;;20.70;12.60;;;1.80;99.90;;;;;;5074558;28;20212;-70
2022/12/18 11:19:54;;;;;;;19.37;12.27;;;2.10;99.90;;;;;;5074402;28;20165;-71
2022/12/18 11:22:20;;;;;;;16.50;11.83;;;2.10;99.90;;;;;;5066342;28;20187;-71
2022/12/18 11:25:05;;;;;;;23.13;14.47;;;2.20;99.90;;;;;;5074300;28;20180;-71
2022/12/18 11:27:32;;;;;;;17.70;11.60;;;2.40;99.90;;;;;;5074611;28;20168;-71
2022/12/18 11:30:27;;;;;;;91.67;71.27;;;2.30;99.50;;;;;;5074451;28;20192;-70
2022/12/18 11:33:14;;;;;;;123.90;91.73;;;2.40;99.70;;;;;;5019607;28;20665;-70
2022/12/18 11:36:02;;;;;;;17.70;10.07;;;2.50;99.40;;;;;;5074420;28;20208;-70
2022/12/18 11:38:43;;;;;;;31.97;21.53;;;2.40;98.60;;;;;;5074119;28;20194;-72
2022/12/18 11:41:18;;;;;;;19.80;11.53;;;2.30;99.00;;;;;;5074336;28;20187;-70
2022/12/18 11:44:01;;;;;;;20.40;11.40;;;2.30;99.40;;;;;;5074229;28;20628;-72
2022/12/18 11:46:37;;;;;;;140.73;78.03;;;2.40;99.30;;;;;;5074450;28;20615;-71
2022/12/18 11:49:26;;;;;;;18.33;11.23;;;2.50;99.20;;;;;;5074219;28;20176;-71
2022/12/18 11:52:29;;;;;;;19.73;11.87;;;2.40;98.60;;;;;;5073522;28;20169;-71
2022/12/18 11:54:59;;;;;;;17.90;11.23;;;2.30;99.20;;;;;;5073738;28;20217;-72
2022/12/18 11:57:30;;;;;;;19.30;12.47;;;2.20;99.80;;;;;;5073664;28;20635;-72
2022/12/18 12:00:04;;;;;;;17.93;11.57;;;2.30;99.90;;;;;;5074279;28;20169;-70
2022/12/18 12:02:30;;;;;;;18.77;11.73;;;2.20;99.90;;;;;;5073646;28;20299;-72
2022/12/18 12:05:11;;;;;;;18.70;12.03;;;2.20;99.90;;;;;;5074078;28;20165;-71
2022/12/18 12:07:59;;;;;;;22.30;12.30;;;2.20;99.90;;;;;;5073470;28;20541;-71
2022/12/18 12:10:40;;;;;;;89.00;73.17;;;2.10;99.90;;;;;;5073820;28;20169;-71
2022/12/18 12:13:11;;;;;;;26.53;17.47;;;2.20;99.90;;;;;;5073127;28;20216;-71
2022/12/18 12:16:00;;;;;;;68.10;54.13;;;2.20;99.90;;;;;;5073031;28;20615;-71
2022/12/18 12:18:38;;;;;;;27.80;18.13;;;2.40;99.90;;;;;;5073401;28;20179;-71
2022/12/18 12:21:42;;;;;;;23.37;15.53;;;2.40;99.90;;;;;;5073310;28;20179;-72
2022/12/18 12:24:26;;;;;;;22.80;12.17;;;2.40;99.90;;;;;;5011727;28;20612;-73
2022/12/18 12:27:12;;;;;;;18.40;12.47;;;2.30;99.90;;;;;;5011423;28;20175;-72
2022/12/18 12:29:44;;;;;;;19.77;12.80;;;2.20;99.90;;;;;;5011452;28;20217;-71
2022/12/18 12:32:21;;;;;;;22.03;12.60;;;2.30;99.90;;;;;;5011594;28;20229;-72
2022/12/18 12:35:05;;;;;;;20.07;12.73;;;2.40;99.90;;;;;;5011454;28;20178;-71
2022/12/18 12:37:49;;;;;;;21.17;13.37;;;2.30;99.90;;;;;;5011453;28;20576;-71
2022/12/18 12:40:19;;;;;;;21.20;13.13;;;2.30;99.90;;;;;;5011227;28;20178;-71
2022/12/18 12:46:07;;;;;;;26.70;15.63;;;2.40;99.90;;;;;;5010690;28;20628;-72
2022/12/18 12:48:49;;;;;;;20.13;12.40;;;2.50;99.90;;;;;;4990871;28;20183;-71
2022/12/18 12:51:30;;;;;;;24.97;16.00;;;2.50;99.90;;;;;;4990933;28;20172;-71
2022/12/18 12:53:58;;;;;;;25.43;13.03;;;2.50;99.90;;;;;;4991409;28;20635;-71
2022/12/18 12:56:31;;;;;;;28.67;20.90;;;2.50;99.90;;;;;;4991784;28;20684;-71
2022/12/18 12:59:15;;;;;;;24.53;13.67;;;2.50;99.90;;;;;;4991004;28;20183;-71
2022/12/18 13:02:01;;;;;;;22.63;13.20;;;2.50;99.90;;;;;;5023939;28;20193;-72